Blythe, California
Current Conditions -  °F | °C
As of 7:52 PM on Wednesday 28 Jan 2015 (Local Time) from KBLH Reporting Station
Clear Clear  
Wind Chill: 64°   Ceiling: Unl
Heat Index: 64°   Visibility: 10mi
Dew Point: 52°   Wind: 7mph
Humidity: 65%   Direction: 350°N
Pressure: 30.11"   Gusts: NA
Location:  33.61°N, 114.59°W
Report Text: KBLH 290352Z AUTO 35006KT 10SM CLR 18/11 A3011 RMK AO2 SLP193 T01780111
Loading
Personal Weather Stations






























Interactive Weather Map New forecast layout! Learn more

10-Day Weather Forecast

Advertisements
Track Severe Weather on mobile